Time;durP1;ratioP1;P1;durP2;ratioP2;P2;SDS_P1;SDS_P2;PMS_P1;PMS_P2;Temp;Humidity;BMP_temperature;BMP_pressure;BME280_temperature;BME280_humidity;BME280_pressure;Samples;Min_cycle;Max_cycle;Signal;HPM_P1;HPM_P2
2022/04/23 00:00:33;;;;;;;13.15;10.88;;;;;;;9.62;81.94;100579.16;1044363;28;20295;-75
2022/04/23 00:01:06;;;;;;;11.45;9.95;;;;;;;9.65;81.76;100581.38;1040136;28;20683;-76
2022/04/23 00:01:39;;;;;;;13.57;11.00;;;;;;;9.68;81.56;100579.09;1040364;28;20355;-75
2022/04/23 00:02:11;;;;;;;13.20;10.82;;;;;;;9.69;81.87;100585.25;1041472;28;20304;-74
2022/04/23 00:02:42;;;;;;;11.27;10.07;;;;;;;9.68;81.60;100575.63;1041271;28;20296;-75
2022/04/23 00:03:14;;;;;;;13.57;11.30;;;;;;;9.71;81.61;100584.00;1036143;28;20790;-76
2022/04/23 00:04:14;;;;;;;14.10;11.60;;;;;;;9.67;81.73;100582.00;1036189;28;20296;-76
2022/04/23 00:04:47;;;;;;;16.27;11.93;;;;;;;9.63;82.34;100581.59;1035768;28;20675;-75
2022/04/23 00:05:18;;;;;;;13.95;12.52;;;;;;;9.56;82.30;100578.97;1039899;28;20319;-74
2022/04/23 00:05:50;;;;;;;14.85;10.55;;;;;;;9.59;82.35;100569.78;1039860;28;20284;-76
2022/04/23 00:06:21;;;;;;;12.35;10.57;;;;;;;9.56;82.55;100573.66;1040803;28;20296;-75
2022/04/23 00:06:53;;;;;;;13.48;11.27;;;;;;;9.55;82.12;100580.00;1040447;28;20308;-75
2022/04/23 00:07:24;;;;;;;12.63;11.32;;;;;;;9.49;82.88;100577.41;1044322;28;20298;-75
2022/04/23 00:07:56;;;;;;;16.15;12.50;;;;;;;9.54;82.67;100581.03;1044300;28;20299;-74
2022/04/23 00:08:28;;;;;;;13.13;11.02;;;;;;;9.48;82.95;100587.22;1044344;28;20799;-75
2022/04/23 00:09:00;;;;;;;12.95;11.65;;;;;;;9.50;82.68;100573.72;1044584;28;20302;-75
2022/04/23 00:09:32;;;;;;;13.25;11.68;;;;;;;9.55;82.40;100580.00;1044730;28;20287;-74
2022/04/23 00:10:05;;;;;;;20.75;12.65;;;;;;;9.51;82.62;100573.50;1044685;28;20302;-75
2022/04/23 00:10:36;;;;;;;13.90;12.20;;;;;;;9.54;82.77;100566.94;1044490;28;20295;-76
2022/04/23 00:11:08;;;;;;;14.23;11.75;;;;;;;9.50;82.71;100577.19;1044042;28;20311;-75
2022/04/23 00:11:40;;;;;;;16.23;12.18;;;;;;;9.47;83.01;100577.63;1041876;28;20300;-75
2022/04/23 00:12:12;;;;;;;13.73;11.38;;;;;;;9.46;82.52;100578.66;1044232;28;20307;-76
2022/04/23 00:12:46;;;;;;;14.10;12.68;;;;;;;9.54;83.19;100575.72;1044548;28;20299;-75
2022/04/23 00:13:17;;;;;;;13.18;11.50;;;;;;;9.55;83.00;100576.53;1044744;28;20294;-75
2022/04/23 00:13:50;;;;;;;14.88;12.35;;;;;;;9.53;82.72;100568.78;1044353;28;20303;-74
2022/04/23 00:14:22;;;;;;;13.43;12.02;;;;;;;9.53;82.96;100571.44;1040055;28;20295;-75
2022/04/23 00:14:54;;;;;;;14.90;11.80;;;;;;;9.55;82.97;100573.88;1036152;28;20592;-76
2022/04/23 00:15:27;;;;;;;13.48;11.98;;;;;;;9.49;83.21;100574.75;1031698;28;20293;-75
2022/04/23 00:16:00;;;;;;;13.07;11.68;;;;;;;9.40;83.16;100576.84;1033736;28;20301;-75
2022/04/23 00:16:32;;;;;;;14.88;11.98;;;;;;;9.49;83.20;100585.38;1041005;28;20300;-74
2022/04/23 00:17:04;;;;;;;12.43;10.68;;;;;;;9.39;83.31;100580.53;1044540;28;20318;-75
2022/04/23 00:17:37;;;;;;;13.55;11.73;;;;;;;9.43;83.14;100576.44;1044399;28;20299;-75
2022/04/23 00:18:09;;;;;;;14.00;12.18;;;;;;;9.41;83.56;100573.16;1044346;28;20300;-75
2022/04/23 00:18:42;;;;;;;19.80;12.52;;;;;;;9.38;83.54;100572.78;1044590;28;20327;-75
2022/04/23 00:19:13;;;;;;;13.70;11.85;;;;;;;9.35;84.00;100574.03;1044293;28;20314;-75
2022/04/23 00:19:46;;;;;;;14.40;12.73;;;;;;;9.34;83.90;100568.94;1040102;28;20338;-74
2022/04/23 00:20:18;;;;;;;17.52;12.77;;;;;;;9.36;83.20;100569.53;1040310;28;20370;-75
2022/04/23 00:20:50;;;;;;;13.93;12.55;;;;;;;9.37;84.12;100571.97;1041075;28;20301;-75
2022/04/23 00:21:22;;;;;;;13.65;12.13;;;;;;;9.36;83.30;100565.03;1044534;28;20306;-75
2022/04/23 00:21:54;;;;;;;13.30;11.90;;;;;;;9.33;83.24;100570.78;1044387;28;20648;-75
2022/04/23 00:22:25;;;;;;;13.38;11.98;;;;;;;9.33;84.08;100569.97;1044293;28;20338;-74
2022/04/23 00:22:56;;;;;;;14.02;12.63;;;;;;;9.39;83.96;100567.25;1044209;28;20283;-75
2022/04/23 00:23:31;;;;;;;13.85;12.45;;;;;;;9.33;83.63;100568.13;1044131;28;20306;-75
2022/04/23 00:24:04;;;;;;;17.42;13.45;;;;;;;9.44;83.28;100567.41;1040087;28;20312;-74
2022/04/23 00:24:35;;;;;;;14.18;12.63;;;;;;;9.41;83.44;100562.53;1041043;28;20315;-75
2022/04/23 00:25:08;;;;;;;14.13;12.73;;;;;;;9.34;84.13;100572.41;1044250;28;20330;-75
2022/04/23 00:25:40;;;;;;;16.38;12.68;;;;;;;9.30;83.69;100571.19;1044130;28;20700;-76
2022/04/23 00:26:12;;;;;;;17.85;13.45;;;;;;;9.34;84.25;100572.41;1044355;28;20658;-75
2022/04/23 00:26:44;;;;;;;15.02;13.48;;;;;;;9.34;83.84;100567.09;1040339;28;20291;-74
2022/04/23 00:27:15;;;;;;;14.18;12.77;;;;;;;9.43;83.54;100565.78;1036063;28;20300;-75
2022/04/23 00:27:47;;;;;;;14.57;13.27;;;;;;;9.40;83.70;100571.53;1031855;28;20356;-75
2022/04/23 00:28:19;;;;;;;16.40;13.32;;;;;;;9.35;83.66;100573.22;1032856;28;20720;-75
2022/04/23 00:28:50;;;;;;;14.88;13.50;;;;;;;9.43;84.42;100565.78;1034833;28;20870;-75
2022/04/23 00:29:22;;;;;;;17.83;14.90;;;;;;;9.43;84.05;100576.44;1039018;28;20362;-75
2022/04/23 00:29:53;;;;;;;15.60;14.10;;;;;;;9.44;83.99;100567.41;1042819;28;20284;-76
2022/04/23 00:30:25;;;;;;;15.95;14.38;;;;;;;9.41;83.45;100573.16;1042016;28;20822;-76
2022/04/23 00:30:56;;;;;;;16.77;14.88;;;;;;;9.49;83.61;100564.09;1044170;28;20291;-75
2022/04/23 00:31:28;;;;;;;16.50;14.82;;;;;;;9.45;83.99;100562.91;1044527;28;20633;-76
2022/04/23 00:31:59;;;;;;;16.42;14.93;;;;;;;9.41;83.47;100562.53;1044509;28;20382;-74
2022/04/23 00:32:32;;;;;;;15.13;13.65;;;;;;;9.40;84.48;100566.22;1044460;28;20390;-76
2022/04/23 00:33:04;;;;;;;18.10;15.07;;;;;;;9.46;83.85;100570.69;1044355;28;20315;-75
2022/04/23 00:33:37;;;;;;;16.58;14.88;;;;;;;9.46;84.05;100569.88;1044236;28;20299;-75
2022/04/23 00:34:09;;;;;;;17.85;15.80;;;;;;;9.49;83.98;100559.59;1041829;28;20931;-76
2022/04/23 00:34:42;;;;;;;18.25;14.90;;;;;;;9.46;83.84;100564.53;1035895;28;20679;-75
2022/04/23 00:35:17;;;;;;;15.30;13.68;;;;;;;9.46;83.74;100569.88;1036093;28;20285;-76
2022/04/23 00:35:49;;;;;;;16.55;14.63;;;;;;;9.50;84.39;100560.41;1034201;28;20297;-76
2022/04/23 00:36:23;;;;;;;17.00;15.27;;;;;;;9.45;84.09;100569.03;1033946;28;20316;-76
2022/04/23 00:36:54;;;;;;;16.75;15.10;;;;;;;9.38;83.84;100562.97;1039950;28;20296;-76
2022/04/23 00:37:26;;;;;;;17.48;14.38;;;;;;;9.36;84.04;100561.56;1040710;28;20312;-75
2022/04/23 00:37:57;;;;;;;16.15;13.85;;;;;;;9.37;83.73;100561.34;1040890;28;20706;-75
2022/04/23 00:38:29;;;;;;;17.42;15.65;;;;;;;9.39;84.13;100559.28;1044092;28;20666;-76
2022/04/23 00:39:00;;;;;;;17.98;15.45;;;;;;;9.44;83.90;100566.59;1044004;28;20311;-75
2022/04/23 00:39:32;;;;;;;17.25;15.45;;;;;;;9.41;84.56;100562.53;1044263;28;20298;-75
2022/04/23 00:40:07;;;;;;;16.45;14.75;;;;;;;9.41;83.91;100567.84;1044351;28;20295;-75
2022/04/23 00:40:39;;;;;;;17.13;15.45;;;;;;;9.39;83.76;100561.94;1044541;28;20294;-75
2022/04/23 00:41:43;;;;;;;16.65;15.05;;;;;;;9.34;84.37;100564.44;1044322;28;20414;-75
2022/04/23 00:42:09;;;;;;;24.00;15.77;;;;;;;9.34;84.42;100567.09;1044501;28;20276;-74
2022/04/23 00:42:52;;;;;;;17.70;15.35;;;;;;;9.34;84.84;100556.47;1044258;28;20287;-75
2022/04/23 00:43:29;;;;;;;17.83;15.10;;;;;;;9.38;84.45;100557.66;1043049;28;20297;-74
2022/04/23 00:44:01;;;;;;;17.60;14.48;;;;;;;9.42;84.30;100564.16;1040149;28;20299;-75
2022/04/23 00:44:34;;;;;;;16.63;14.82;;;;;;;9.44;84.36;100559.44;1035863;28;20301;-76
2022/04/23 00:45:08;;;;;;;18.60;15.00;;;;;;;9.38;84.88;100567.47;1037372;28;20305;-75
2022/04/23 00:45:41;;;;;;;18.02;15.43;;;;;;;9.36;84.52;100565.03;1040966;28;20366;-75
2022/04/23 00:46:12;;;;;;;21.02;16.10;;;;;;;9.39;84.19;100567.25;1044186;28;20382;-74
2022/04/23 00:46:45;;;;;;;17.38;15.55;;;;;;;9.37;84.85;100566.66;1044616;28;20786;-75
2022/04/23 00:47:16;;;;;;;17.77;15.88;;;;;;;9.43;84.42;100564.97;1039865;28;20303;-74
2022/04/23 00:47:48;;;;;;;17.10;15.43;;;;;;;9.44;84.56;100561.28;1039970;28;20288;-75
2022/04/23 00:48:21;;;;;;;16.92;15.18;;;;;;;9.42;84.57;100569.47;1039860;28;20710;-75
2022/04/23 00:48:53;;;;;;;17.13;15.35;;;;;;;9.39;84.60;100569.91;1038445;28;20304;-75
2022/04/23 00:49:24;;;;;;;18.27;16.35;;;;;;;9.47;84.90;100568.84;1044096;28;20299;-75
2022/04/23 00:49:56;;;;;;;18.48;16.48;;;;;;;9.48;84.53;100567.78;1040215;28;20300;-75
2022/04/23 00:50:28;;;;;;;17.80;16.00;;;;;;;9.46;84.26;100565.34;1036120;28;20335;-75
2022/04/23 00:51:00;;;;;;;17.85;15.57;;;;;;;9.49;84.70;100562.25;1032241;28;20297;-75
2022/04/23 00:51:35;;;;;;;18.90;15.57;;;;;;;9.49;84.26;100570.25;1036059;28;20309;-75
2022/04/23 00:52:13;;;;;;;27.02;16.48;;;;;;;9.49;84.34;100564.91;1041230;28;20292;-75
2022/04/23 00:52:44;;;;;;;18.25;16.45;;;;;;;9.53;84.13;100563.47;1038190;28;20395;-75
2022/04/23 00:53:19;;;;;;;17.98;16.27;;;;;;;9.48;84.89;100563.28;1039818;28;20655;-75
2022/04/23 00:53:50;;;;;;;19.23;17.15;;;;;;;9.54;84.48;100565.09;1040012;28;20718;-74
2022/04/23 00:54:22;;;;;;;20.00;16.60;;;;;;;9.59;84.18;100565.28;1036711;28;20343;-75
2022/04/23 00:54:54;;;;;;;18.33;16.52;;;;;;;9.64;84.09;100561.16;1040017;28;20714;-75
2022/04/23 00:55:28;;;;;;;19.17;17.33;;;;;;;9.66;84.10;100556.44;1036374;28;20289;-75
2022/04/23 00:55:59;;;;;;;21.33;17.08;;;;;;;9.64;83.74;100553.16;1036377;28;20344;-74
2022/04/23 00:56:31;;;;;;;19.73;16.70;;;;;;;9.64;84.17;100550.50;1035563;28;20655;-75
2022/04/23 00:57:04;;;;;;;20.38;18.23;;;;;;;9.69;84.07;100558.66;1032712;28;20304;-76
2022/04/23 00:57:36;;;;;;;18.20;16.40;;;;;;;9.65;84.25;100557.47;1036565;28;20303;-75
2022/04/23 00:58:08;;;;;;;19.42;17.52;;;;;;;9.70;84.09;100561.09;1040709;28;20303;-75
2022/04/23 00:58:39;;;;;;;19.17;17.27;;;;;;;9.68;83.80;100555.19;1044129;28;20298;-76
2022/04/23 00:59:12;;;;;;;22.13;16.75;;;;;;;9.65;83.83;100557.47;1044223;28;20634;-75
2022/04/23 00:59:44;;;;;;;18.15;16.25;;;;;;;9.72;84.06;100563.53;1044312;28;20368;-75
2022/04/23 01:00:16;;;;;;;20.45;17.45;;;;;;;9.73;83.93;100555.34;1044475;28;20299;-75
2022/04/23 01:00:48;;;;;;;23.40;17.50;;;;;;;9.72;83.23;100559.03;1044420;28;20302;-74
2022/04/23 01:01:23;;;;;;;20.40;18.35;;;;;;;9.73;83.32;100559.84;1043939;28;20421;-75
2022/04/23 01:01:55;;;;;;;19.95;17.95;;;;;;;9.75;83.45;100558.59;1039733;28;20330;-76
2022/04/23 01:02:27;;;;;;;22.50;16.90;;;;;;;9.73;83.51;100555.34;1035778;28;20849;-74
2022/04/23 01:02:59;;;;;;;22.13;18.63;;;;;;;9.71;83.62;100552.06;1036807;28;20311;-75
2022/04/23 01:03:32;;;;;;;19.25;17.35;;;;;;;9.71;83.98;100548.59;1036728;28;20304;-75
2022/04/23 01:04:05;;;;;;;27.10;19.73;;;;;;;9.73;84.03;100562.50;1040572;28;20782;-76
2022/04/23 01:04:36;;;;;;;21.65;19.30;;;;;;;9.77;83.90;100555.72;1044089;28;20295;-76
2022/04/23 01:05:09;;;;;;;20.75;18.55;;;;;;;9.72;83.78;100547.56;1044212;28;20370;-75
2022/04/23 01:05:42;;;;;;;21.80;18.65;;;;;;;9.72;83.73;100551.03;1044332;28;20291;-74
2022/04/23 01:06:13;;;;;;;22.58;20.25;;;;;;;9.72;84.02;100561.69;1044524;28;20299;-75
2022/04/23 01:06:46;;;;;;;22.95;19.75;;;;;;;9.73;84.02;100550.00;1044451;28;20302;-75
2022/04/23 01:07:17;;;;;;;22.88;20.52;;;;;;;9.77;84.15;100555.72;1043931;28;20295;-76
2022/04/23 01:07:51;;;;;;;21.83;19.52;;;;;;;9.78;84.02;100552.81;1039932;28;20756;-75
2022/04/23 01:08:25;;;;;;;21.40;19.13;;;;;;;9.77;84.18;100556.53;1040083;28;20357;-76
2022/04/23 01:08:58;;;;;;;21.45;19.23;;;;;;;9.81;83.48;100551.56;1034635;28;20308;-75
2022/04/23 01:09:29;;;;;;;23.58;19.63;;;;;;;9.77;83.44;100545.88;1039805;28;20871;-75
2022/04/23 01:10:02;;;;;;;29.80;20.73;;;;;;;9.77;83.85;100550.38;1039845;28;20532;-75
2022/04/23 01:10:34;;;;;;;21.40;18.98;;;;;;;9.74;83.97;100550.81;1041126;28;20307;-74
2022/04/23 01:11:05;;;;;;;22.10;19.80;;;;;;;9.73;83.88;100549.19;1043850;28;20378;-76
2022/04/23 01:11:37;;;;;;;23.52;21.02;;;;;;;9.72;83.85;100552.88;1039577;28;20292;-76
2022/04/23 01:12:10;;;;;;;24.58;21.58;;;;;;;9.70;83.79;100550.44;1035974;28;20296;-75
2022/04/23 01:12:44;;;;;;;22.17;19.80;;;;;;;9.65;83.75;100552.94;1032636;28;20300;-75
2022/04/23 01:13:16;;;;;;;22.45;20.02;;;;;;;9.69;84.27;100553.31;1032961;28;20652;-76
2022/04/23 01:13:47;;;;;;;23.20;20.77;;;;;;;9.66;84.48;100556.44;1032847;28;20848;-75
2022/04/23 01:14:19;;;;;;;24.13;21.60;;;;;;;9.69;84.09;100558.66;1032858;28;20300;-75
2022/04/23 01:15:00;;;;;;;22.65;20.40;;;;;;;9.73;84.08;100554.53;1036581;28;20296;-75
2022/04/23 01:15:33;;;;;;;21.42;19.38;;;;;;;9.65;84.07;100549.47;1039670;28;20372;-75
2022/04/23 01:16:07;;;;;;;23.25;20.95;;;;;;;9.65;84.01;100542.31;1041803;28;20315;-74
2022/04/23 01:16:38;;;;;;;24.58;20.83;;;;;;;9.71;83.70;100548.59;1039742;28;20377;-74
2022/04/23 01:17:10;;;;;;;24.95;22.33;;;;;;;9.74;84.21;100553.47;1040126;28;20788;-76
2022/04/23 01:17:42;;;;;;;25.42;22.63;;;;;;;9.72;83.89;100543.06;1040760;28;20296;-76
2022/04/23 01:18:16;;;;;;;25.95;23.25;;;;;;;9.71;84.39;100549.41;1040429;28;20362;-74
2022/04/23 01:18:48;;;;;;;24.08;21.45;;;;;;;9.67;84.34;100555.41;1043457;28;20306;-76
2022/04/23 01:19:19;;;;;;;22.92;20.73;;;;;;;9.63;84.02;100552.34;1040084;28;20315;-75
2022/04/23 01:19:51;;;;;;;27.50;20.98;;;;;;;9.64;84.35;100546.00;1040822;28;20296;-75
2022/04/23 01:20:24;;;;;;;25.25;22.95;;;;;;;9.65;84.13;100557.47;1043965;28;20307;-75
2022/04/23 01:20:56;;;;;;;24.30;21.95;;;;;;;9.70;83.79;100549.63;1044413;28;20283;-75
2022/04/23 01:21:28;;;;;;;23.85;21.67;;;;;;;9.68;84.87;100546.38;1044108;28;20303;-75
2022/04/23 01:21:59;;;;;;;24.90;22.42;;;;;;;9.67;84.30;100534.13;1043700;28;20299;-75
2022/04/23 01:22:32;;;;;;;24.40;21.90;;;;;;;9.66;84.43;100543.94;1044521;28;20314;-74
2022/04/23 01:23:03;;;;;;;23.77;21.45;;;;;;;9.67;84.80;100545.56;1044122;28;20677;-76
2022/04/23 01:23:35;;;;;;;26.38;23.50;;;;;;;9.69;84.30;100545.34;1043991;28;20298;-75
2022/04/23 01:24:07;;;;;;;24.00;21.60;;;;;;;9.71;84.24;100540.63;1039943;28;20343;-75
2022/04/23 01:24:39;;;;;;;23.88;21.58;;;;;;;9.74;84.33;100548.16;1036492;28;20305;-75
2022/04/23 01:25:12;;;;;;;24.77;22.20;;;;;;;9.69;84.48;100553.31;1039747;28;20785;-75
2022/04/23 01:25:44;;;;;;;23.55;21.27;;;;;;;9.68;84.38;100546.38;1036453;28;20301;-75
2022/04/23 01:26:31;;;;;;;25.23;21.48;;;;;;;9.73;84.56;100544.69;1036687;28;20830;-74
2022/04/23 01:27:04;;;;;;;26.15;22.10;;;;;;;9.72;84.49;100542.25;1039210;28;20311;-75
2022/04/23 01:27:36;;;;;;;23.77;21.00;;;;;;;9.70;84.16;100546.97;1038507;28;20474;-75
2022/04/23 01:28:08;;;;;;;26.05;23.33;;;;;;;9.69;84.17;100553.31;1039953;28;20300;-75
2022/04/23 01:28:40;;;;;;;26.58;21.88;;;;;;;9.65;84.72;100552.94;1035692;28;20786;-74
2022/04/23 01:29:11;;;;;;;24.65;22.15;;;;;;;9.71;84.98;100551.25;1032271;28;20301;-75
2022/04/23 01:29:43;;;;;;;24.77;22.20;;;;;;;9.75;84.18;100541.81;1032009;28;20305;-76
2022/04/23 01:30:15;;;;;;;26.92;21.85;;;;;;;9.75;84.52;100549.78;1035978;28;20326;-75
2022/04/23 01:30:51;;;;;;;24.48;22.00;;;;;;;9.74;83.99;100548.16;1040350;28;20390;-75
2022/04/23 01:31:24;;;;;;;23.70;21.17;;;;;;;9.71;84.67;100545.94;1044116;28;20291;-76
2022/04/23 01:31:56;;;;;;;23.95;21.45;;;;;;;9.72;84.17;100545.72;1039838;28;20296;-74
2022/04/23 01:32:28;;;;;;;23.08;20.88;;;;;;;9.68;84.39;100554.34;1035732;28;20308;-75
2022/04/23 01:32:59;;;;;;;23.95;21.25;;;;;;;9.69;84.71;100548.00;1036417;28;20663;-76
2022/04/23 01:33:33;;;;;;;23.08;20.77;;;;;;;9.69;84.86;100548.00;1040623;28;20288;-76
2022/04/23 01:34:04;;;;;;;26.05;23.45;;;;;;;9.66;84.51;100556.44;1038738;28;20292;-76
2022/04/23 01:34:36;;;;;;;23.30;21.00;;;;;;;9.69;84.60;100548.00;1043886;28;20642;-75
2022/04/23 01:35:08;;;;;;;24.25;21.30;;;;;;;9.68;85.00;100557.03;1039722;28;20545;-75
2022/04/23 01:35:40;;;;;;;24.42;21.98;;;;;;;9.67;84.05;100550.06;1036374;28;20304;-76
2022/04/23 01:36:14;;;;;;;28.23;22.45;;;;;;;9.69;85.07;100558.66;1039851;28;20288;-75
2022/04/23 01:36:45;;;;;;;24.98;22.17;;;;;;;9.66;84.36;100553.78;1036625;28;20295;-75
2022/04/23 01:37:20;;;;;;;25.15;22.30;;;;;;;9.65;84.59;100549.47;1040583;28;20296;-76
2022/04/23 01:37:51;;;;;;;23.55;21.02;;;;;;;9.65;84.88;100546.81;1035798;28;20297;-75
2022/04/23 01:38:24;;;;;;;23.70;21.30;;;;;;;9.68;85.02;100557.03;1034187;28;20324;-75
2022/04/23 01:38:55;;;;;;;24.52;21.92;;;;;;;9.69;84.64;100548.81;1039297;28;20296;-75
2022/04/23 01:39:27;;;;;;;25.05;21.45;;;;;;;9.66;84.86;100554.56;1036832;28;20296;-75
2022/04/23 01:39:58;;;;;;;22.48;20.38;;;;;;;9.71;84.37;100544.09;1036029;28;20288;-75
2022/04/23 01:40:30;;;;;;;25.02;22.50;;;;;;;9.72;84.41;100550.22;1039180;28;20355;-74
2022/04/23 01:41:02;;;;;;;25.45;22.75;;;;;;;9.72;84.58;100551.03;1040465;28;20292;-76
2022/04/23 01:41:33;;;;;;;25.05;22.02;;;;;;;9.72;84.05;100539.59;1044377;28;20642;-75
2022/04/23 01:42:05;;;;;;;24.80;22.20;;;;;;;9.67;84.72;100550.06;1043926;28;20311;-75
2022/04/23 01:42:36;;;;;;;26.00;23.30;;;;;;;9.74;84.72;100550.81;1043790;28;21566;-75
2022/04/23 01:43:08;;;;;;;24.02;21.63;;;;;;;9.72;84.85;100547.56;1040047;28;20292;-75
2022/04/23 01:43:40;;;;;;;29.38;23.38;;;;;;;9.72;84.81;100545.72;1035812;28;20813;-75
2022/04/23 01:44:11;;;;;;;24.13;21.83;;;;;;;9.73;84.34;100543.88;1036068;28;20802;-75
2022/04/23 01:44:48;;;;;;;26.42;22.13;;;;;;;9.69;84.46;100543.50;1040601;28;20292;-75
2022/04/23 01:45:20;;;;;;;25.33;22.73;;;;;;;9.73;84.56;100543.88;1041921;28;20584;-75
2022/04/23 01:45:51;;;;;;;25.25;22.45;;;;;;;9.74;84.19;100537.53;1044066;28;20288;-75
2022/04/23 01:46:23;;;;;;;25.38;22.70;;;;;;;9.74;84.48;100545.50;1039559;28;20314;-75
2022/04/23 01:46:55;;;;;;;27.42;23.55;;;;;;;9.75;84.14;100541.81;1036580;28;20300;-75
2022/04/23 01:47:27;;;;;;;25.13;22.50;;;;;;;9.76;84.21;100543.44;1039905;28;20355;-75
2022/04/23 01:47:58;;;;;;;26.67;23.50;;;;;;;9.74;84.82;100540.19;1036152;28;20755;-75
2022/04/23 01:48:30;;;;;;;24.58;22.10;;;;;;;9.73;84.26;100546.53;1036254;28;20297;-74
2022/04/23 01:49:01;;;;;;;25.13;22.60;;;;;;;9.73;84.41;100542.03;1039834;28;20296;-75
2022/04/23 01:49:33;;;;;;;25.92;22.77;;;;;;;9.75;84.48;100542.63;1040359;28;20292;-74
2022/04/23 01:50:06;;;;;;;24.90;22.20;;;;;;;9.77;84.27;100550.38;1040286;28;20706;-75
2022/04/23 01:50:37;;;;;;;24.48;21.90;;;;;;;9.75;84.48;100547.13;1044229;28;20337;-74
2022/04/23 01:51:10;;;;;;;25.65;22.98;;;;;;;9.75;84.60;100541.81;1039771;28;20308;-75
2022/04/23 01:51:41;;;;;;;24.83;22.23;;;;;;;9.80;84.73;100541.97;1040640;28;20329;-76
2022/04/23 01:52:13;;;;;;;24.92;22.33;;;;;;;9.78;84.59;100541.38;1040027;28;20296;-76
2022/04/23 01:52:46;;;;;;;25.00;22.50;;;;;;;9.77;83.89;100540.56;1036028;28;20300;-75
2022/04/23 01:53:18;;;;;;;26.02;22.48;;;;;;;9.76;84.13;100549.56;1039910;28;20299;-76
2022/04/23 01:53:49;;;;;;;24.08;21.55;;;;;;;9.77;84.12;100545.88;1040740;28;20288;-76
2022/04/23 01:54:21;;;;;;;28.23;22.65;;;;;;;9.76;84.70;100548.75;1043851;28;20700;-76
2022/04/23 01:54:53;;;;;;;26.15;23.45;;;;;;;9.77;84.33;100539.75;1044272;28;20295;-77
2022/04/23 01:55:24;;;;;;;25.48;23.02;;;;;;;9.80;84.23;100544.63;1044087;28;20646;-76
2022/04/23 01:55:56;;;;;;;24.83;22.42;;;;;;;9.78;84.37;100552.00;1044001;28;20295;-76
2022/04/23 01:56:28;;;;;;;25.42;22.70;;;;;;;9.79;84.41;100543.00;1040062;28;20306;-77
2022/04/23 01:57:00;;;;;;;26.70;24.00;;;;;;;9.80;84.03;100542.78;1040437;28;20303;-77
2022/04/23 01:57:31;;;;;;;24.52;22.17;;;;;;;9.81;84.13;100539.09;1040056;28;20292;-76
2022/04/23 01:58:03;;;;;;;26.45;23.85;;;;;;;9.78;83.92;100547.50;1040352;28;20300;-77
2022/04/23 01:58:34;;;;;;;26.15;23.58;;;;;;;9.76;84.04;100544.25;1043849;28;21512;-76
2022/04/23 01:59:06;;;;;;;26.33;23.63;;;;;;;9.79;84.51;100535.03;1044085;28;20299;-76
2022/04/23 01:59:37;;;;;;;26.02;23.40;;;;;;;9.79;83.88;100548.31;1044262;28;20302;-77
2022/04/23 02:00:13;;;;;;;25.75;22.98;;;;;;;9.79;84.35;100541.16;1043832;28;20303;-77
2022/04/23 02:00:45;;;;;;;26.08;23.20;;;;;;;9.77;83.97;100539.75;1043410;28;20299;-77
2022/04/23 02:01:17;;;;;;;25.13;22.50;;;;;;;9.74;84.00;100541.00;1044045;28;20353;-76
2022/04/23 02:01:49;;;;;;;25.15;22.85;;;;;;;9.76;84.52;100544.25;1040635;28;20335;-77
2022/04/23 02:02:22;;;;;;;25.92;23.25;;;;;;;9.74;84.04;100541.00;1039673;28;20662;-76
2022/04/23 02:02:56;;;;;;;27.25;24.17;;;;;;;9.77;84.21;100551.19;1039738;28;20296;-76
2022/04/23 02:03:29;;;;;;;25.42;22.70;;;;;;;9.79;84.28;100549.13;1034495;28;20312;-77
2022/04/23 02:04:01;;;;;;;26.52;23.88;;;;;;;9.79;83.94;100543.00;1036716;28;20371;-76
2022/04/23 02:04:33;;;;;;;26.45;23.83;;;;;;;9.78;84.06;100549.34;1039979;28;20300;-77
2022/04/23 02:05:06;;;;;;;26.65;23.90;;;;;;;9.74;83.90;100545.50;1041183;28;20296;-77
2022/04/23 02:05:38;;;;;;;26.40;23.83;;;;;;;9.74;84.50;100545.50;1038518;28;20846;-76
2022/04/23 02:06:09;;;;;;;26.33;23.63;;;;;;;9.72;84.22;100544.91;1039631;28;20370;-76
2022/04/23 02:06:41;;;;;;;29.08;23.70;;;;;;;9.68;84.93;100541.88;1039798;28;20374;-76
2022/04/23 02:07:13;;;;;;;24.42;21.83;;;;;;;9.71;84.20;100546.75;1040429;28;20801;-76
2022/04/23 02:07:45;;;;;;;26.83;23.00;;;;;;;9.71;84.24;100535.31;1039704;28;20295;-76
2022/04/23 02:08:17;;;;;;;26.40;23.70;;;;;;;9.75;84.69;100547.13;1035514;28;20305;-76
2022/04/23 02:08:49;;;;;;;25.75;23.35;;;;;;;9.73;84.36;100546.53;1023634;29;20781;-77
2022/04/23 02:09:21;;;;;;;27.20;23.27;;;;;;;9.68;84.10;100536.56;1024240;28;20660;-77
2022/04/23 02:09:52;;;;;;;25.48;22.98;;;;;;;9.65;84.23;100546.81;1028752;28;20294;-76
2022/04/23 02:10:24;;;;;;;26.05;23.35;;;;;;;9.68;84.84;100535.75;1037004;28;20387;-76
2022/04/23 02:10:56;;;;;;;26.77;23.50;;;;;;;9.69;84.87;100537.38;1043989;28;20303;-77
2022/04/23 02:11:28;;;;;;;27.48;23.75;;;;;;;9.68;84.43;100535.75;1043959;28;20303;-77
2022/04/23 02:12:00;;;;;;;25.27;22.70;;;;;;;9.71;84.07;100540.63;1039336;28;20351;-77
2022/04/23 02:12:31;;;;;;;25.38;22.65;;;;;;;9.67;84.79;100550.06;1039924;28;20378;-77
2022/04/23 02:13:03;;;;;;;27.20;24.27;;;;;;;9.66;84.71;100551.09;1040131;28;20299;-77
2022/04/23 02:13:34;;;;;;;26.80;22.55;;;;;;;9.65;84.60;100549.47;1040140;28;20376;-77
2022/04/23 02:14:06;;;;;;;27.30;24.60;;;;;;;9.62;84.64;100550.72;1043935;28;20689;-76
2022/04/23 02:14:37;;;;;;;27.13;24.45;;;;;;;9.59;84.59;100544.00;1039651;28;20876;-77
2022/04/23 02:15:12;;;;;;;32.47;25.25;;;;;;;9.64;84.45;100535.38;1040275;28;20323;-76
2022/04/23 02:15:43;;;;;;;26.85;24.25;;;;;;;9.62;84.93;100547.25;1042332;28;20292;-77
2022/04/23 02:16:15;;;;;;;27.35;24.75;;;;;;;9.59;84.74;100544.00;1038166;28;20330;-77
2022/04/23 02:16:47;;;;;;;28.50;24.85;;;;;;;9.62;84.72;100549.91;1039619;28;20306;-77
2022/04/23 02:17:19;;;;;;;27.33;24.40;;;;;;;9.57;85.23;100545.22;1039544;28;20307;-77
2022/04/23 02:17:52;;;;;;;28.38;25.33;;;;;;;9.53;85.53;100550.16;1040178;28;20306;-77
2022/04/23 02:18:25;;;;;;;29.15;26.33;;;;;;;9.54;84.99;100554.44;1043514;28;20307;-77
2022/04/23 02:18:57;;;;;;;27.70;24.90;;;;;;;9.52;85.30;100553.03;1043850;28;20295;-77
2022/04/23 02:19:29;;;;;;;29.00;26.30;;;;;;;9.54;85.50;100548.31;1044020;28;20676;-77
2022/04/23 02:20:02;;;;;;;28.67;25.65;;;;;;;9.53;85.29;100544.84;1041481;28;20303;-77
2022/04/23 02:20:34;;;;;;;27.35;24.67;;;;;;;9.52;84.97;100543.22;1043802;28;20344;-77
2022/04/23 02:21:06;;;;;;;28.52;25.90;;;;;;;9.52;84.87;100543.22;1043674;28;20306;-76
2022/04/23 02:21:37;;;;;;;28.58;25.83;;;;;;;9.51;85.72;100546.09;1044200;28;20295;-77
2022/04/23 02:22:09;;;;;;;27.90;25.13;;;;;;;9.51;85.25;100546.09;1044154;28;20653;-77
2022/04/23 02:22:42;;;;;;;28.88;26.02;;;;;;;9.47;85.19;100553.69;1043473;28;20305;-77
2022/04/23 02:23:13;;;;;;;27.55;24.73;;;;;;;9.43;85.83;100547.19;1039900;28;20292;-77
2022/04/23 02:23:45;;;;;;;28.27;25.45;;;;;;;9.47;85.81;100544.91;1039602;28;20316;-77
2022/04/23 02:24:16;;;;;;;28.70;26.00;;;;;;;9.41;85.59;100543.94;1040370;28;20292;-77
2022/04/23 02:24:48;;;;;;;29.67;26.20;;;;;;;9.48;86.02;100547.34;1043987;28;20299;-76
2022/04/23 02:25:20;;;;;;;28.65;25.65;;;;;;;9.47;85.84;100545.72;1042271;28;20304;-77
2022/04/23 02:25:51;;;;;;;28.05;25.45;;;;;;;9.46;86.07;100544.09;1043954;28;20307;-77
2022/04/23 02:26:23;;;;;;;29.30;26.50;;;;;;;9.47;85.42;100547.56;1044098;28;20306;-77
2022/04/23 02:26:55;;;;;;;27.83;24.92;;;;;;;9.47;86.21;100548.38;1043890;28;20303;-77
2022/04/23 02:27:27;;;;;;;28.88;25.70;;;;;;;9.43;85.60;100541.88;1039648;28;20300;-77
2022/04/23 02:27:59;;;;;;;27.35;24.73;;;;;;;9.46;85.82;100538.78;1039707;28;20296;-77
2022/04/23 02:28:32;;;;;;;28.90;26.05;;;;;;;9.47;85.32;100545.72;1036284;28;20305;-77
2022/04/23 02:29:03;;;;;;;28.42;25.55;;;;;;;9.50;85.58;100550.59;1036001;28;20301;-76
2022/04/23 02:29:35;;;;;;;27.98;25.33;;;;;;;9.52;85.29;100537.91;1039582;28;20303;-76